Time;durP1;ratioP1;P1;durP2;ratioP2;P2;SDS_P1;SDS_P2;PMS_P1;PMS_P2;Temp;Humidity;BMP_temperature;BMP_pressure;BME280_temperature;BME280_humidity;BME280_pressure;Samples;Min_cycle;Max_cycle;Signal;HPM_P1;HPM_P2
2023/10/26 00:18:49;;;;;;;53.33;25.13;;;10.60;99.90;;;;;;5744743;24;20686;-86
2023/10/26 00:49:06;;;;;;;61.00;28.50;;;10.60;99.90;;;;;;5546619;25;20528;-86
2023/10/26 01:50:30;;;;;;;57.53;25.47;;;10.40;99.90;;;;;;5709973;24;20186;-84
2023/10/26 02:30:20;;;;;;;60.67;26.20;;;9.70;99.90;;;;;;5716686;24;20203;-83
2023/10/26 02:50:36;;;;;;;57.33;27.17;;;9.60;99.90;;;;;;5867342;23;20707;-85
2023/10/26 08:02:31;;;;;;;43.30;27.40;;;10.70;99.90;;;;;;6129448;22;20254;-83
2023/10/26 08:27:36;;;;;;;31.10;22.03;;;11.00;99.90;;;;;;5751187;24;20182;-88
2023/10/26 08:53:06;;;;;;;28.60;20.50;;;10.90;99.90;;;;;;5787095;24;21227;-85
2023/10/26 09:13:08;;;;;;;31.93;22.13;;;11.10;99.90;;;;;;5698522;24;20186;-86
2023/10/26 09:38:37;;;;;;;31.67;21.90;;;11.20;99.90;;;;;;5892119;23;20214;-88
2023/10/26 10:03:31;;;;;;;34.80;22.15;;;11.00;99.90;;;;;;6114408;22;20226;31
2023/10/26 10:29:21;;;;;;;32.20;21.93;;;11.00;99.90;;;;;;6210674;22;20160;-89
2023/10/26 10:59:36;;;;;;;32.33;21.33;;;11.40;99.90;;;;;;6052441;23;20409;-87
2023/10/26 11:30:06;;;;;;;31.17;22.57;;;11.50;99.90;;;;;;6247810;22;20164;-88
2023/10/26 11:55:22;;;;;;;29.60;22.10;;;11.80;99.90;;;;;;6066623;23;20188;-90
2023/10/26 12:35:40;;;;;;;35.77;24.80;;;11.90;99.90;;;;;;5856958;24;20660;-89
2023/10/26 12:56:26;;;;;;;33.87;24.00;;;12.20;99.90;;;;;;5730083;24;20186;-88
2023/10/26 13:16:44;;;;;;;33.07;22.60;;;12.40;99.90;;;;;;5842013;24;20191;-86
2023/10/26 13:41:51;;;;;;;25.20;17.83;;;12.20;99.90;;;;;;6010276;23;20213;-88
2023/10/26 13:51:58;;;;;;;21.50;17.67;;;12.30;99.90;;;;;;6245844;22;20197;31
2023/10/26 14:17:13;;;;;;;17.37;14.23;;;12.10;99.90;;;;;;6113011;23;20203;-84
2023/10/26 14:42:28;;;;;;;17.50;13.93;;;12.00;99.90;;;;;;5956266;23;20226;-86
2023/10/26 15:08:00;;;;;;;21.20;16.97;;;12.00;99.90;;;;;;5937521;23;20182;-85
2023/10/26 15:28:20;;;;;;;22.53;16.50;;;12.00;99.90;;;;;;5814317;24;20181;-86
2023/10/26 15:58:10;;;;;;;17.43;14.87;;;12.10;99.90;;;;;;5895820;24;20838;-85
2023/10/26 16:18:37;;;;;;;17.57;15.67;;;12.00;99.90;;;;;;6058379;23;20189;-83
2023/10/26 16:38:52;;;;;;;18.93;16.07;;;12.10;99.90;;;;;;5811512;24;20706;-89
2023/10/26 17:04:20;;;;;;;19.60;16.30;;;12.10;99.90;;;;;;5735405;24;20188;-90
2023/10/26 17:19:48;;;;;;;17.67;15.27;;;12.00;99.90;;;;;;5977865;24;20264;-89
2023/10/26 17:54:37;;;;;;;18.00;14.27;;;11.90;99.90;;;;;;5880244;24;20537;-85
2023/10/26 18:15:11;;;;;;;15.57;12.40;;;11.80;99.90;;;;;;5855452;24;20187;-84
2023/10/26 18:40:43;;;;;;;15.93;12.17;;;11.60;99.90;;;;;;5913864;24;20499;-88
2023/10/26 18:55:56;;;;;;;14.40;12.17;;;11.70;99.90;;;;;;6240617;22;20289;-87
2023/10/26 19:31:28;;;;;;;12.03;10.67;;;11.70;99.90;;;;;;6270553;22;20157;-86
2023/10/26 19:35:48;;;;;;;12.37;10.50;;;11.60;99.90;;;;;;6167041;23;20190;-90
2023/10/26 19:56:40;;;;;;;15.23;11.83;;;11.40;99.90;;;;;;5926426;24;20777;-85
2023/10/26 20:06:36;;;;;;;15.53;13.07;;;11.50;99.90;;;;;;6270439;22;20191;-90
2023/10/26 20:32:11;;;;;;;20.07;14.77;;;11.60;99.90;;;;;;6076678;23;20307;-89
2023/10/26 21:02:36;;;;;;;23.00;17.37;;;11.60;99.90;;;;;;5797042;24;20232;-88
2023/10/26 21:06:55;;;;;;;24.67;17.33;;;11.60;99.90;;;;;;5724595;24;20460;-88
2023/10/26 21:37:55;;;;;;;16.87;13.07;;;11.70;99.90;;;;;;6183997;22;20160;-87
2023/10/26 22:08:15;;;;;;;17.80;13.50;;;11.70;99.90;;;;;;6098730;23;20174;-88
2023/10/26 22:38:06;;;;;;;20.00;14.23;;;11.60;99.90;;;;;;5881101;24;20185;-88
2023/10/26 22:58:49;;;;;;;19.00;13.97;;;11.40;99.90;;;;;;5828512;24;20248;-87
2023/10/26 23:29:12;;;;;;;16.80;12.83;;;11.40;99.90;;;;;;5890922;24;20174;-86
